sensor_id;sensor_type;location;lat;lon;timestamp;pressure;altitude;pressure_sealevel;temperature;humidity
10348;BME280;5220;43.192;23.284;2023-06-10T00:00:26;96590.72;;;20.22;100.00
10348;BME280;5220;43.192;23.284;2023-06-10T00:02:54;96582.44;;;20.25;100.00
10348;BME280;5220;43.192;23.284;2023-06-10T00:05:21;96579.66;;;20.27;100.00
10348;BME280;5220;43.192;23.284;2023-06-10T00:07:48;96577.34;;;20.24;100.00
10348;BME280;5220;43.192;23.284;2023-06-10T00:10:14;96582.28;;;20.27;100.00
10348;BME280;5220;43.192;23.284;2023-06-10T00:12:41;96580.94;;;20.08;100.00
10348;BME280;5220;43.192;23.284;2023-06-10T00:15:09;96574.53;;;20.11;100.00
10348;BME280;5220;43.192;23.284;2023-06-10T00:17:36;96582.59;;;20.09;100.00
10348;BME280;5220;43.192;23.284;2023-06-10T00:20:07;96579.34;;;20.07;100.00
10348;BME280;5220;43.192;23.284;2023-06-10T00:22:34;96579.66;;;19.90;100.00
10348;BME280;5220;43.192;23.284;2023-06-10T00:25:01;96582.00;;;19.84;100.00
10348;BME280;5220;43.192;23.284;2023-06-10T00:27:29;96574.19;;;19.91;100.00
10348;BME280;5220;43.192;23.284;2023-06-10T00:30:00;96579.94;;;19.95;100.00
10348;BME280;5220;43.192;23.284;2023-06-10T00:32:27;96578.97;;;19.96;100.00
10348;BME280;5220;43.192;23.284;2023-06-10T00:34:53;96575.84;;;19.92;100.00
10348;BME280;5220;43.192;23.284;2023-06-10T00:37:21;96569.38;;;19.95;100.00
10348;BME280;5220;43.192;23.284;2023-06-10T00:39:48;96567.97;;;19.84;100.00
10348;BME280;5220;43.192;23.284;2023-06-10T00:42:15;96566.63;;;19.88;100.00
10348;BME280;5220;43.192;23.284;2023-06-10T00:44:42;96562.81;;;19.91;100.00
10348;BME280;5220;43.192;23.284;2023-06-10T00:47:08;96568.91;;;19.91;100.00
10348;BME280;5220;43.192;23.284;2023-06-10T00:49:35;96570.38;;;19.94;100.00
10348;BME280;5220;43.192;23.284;2023-06-10T00:52:03;96571.84;;;19.96;100.00
10348;BME280;5220;43.192;23.284;2023-06-10T00:54:32;96566.56;;;19.96;100.00
10348;BME280;5220;43.192;23.284;2023-06-10T00:57:01;96566.56;;;19.96;100.00
10348;BME280;5220;43.192;23.284;2023-06-10T00:59:28;96571.03;;;19.96;100.00
10348;BME280;5220;43.192;23.284;2023-06-10T01:01:56;96569.38;;;19.95;100.00
10348;BME280;5220;43.192;23.284;2023-06-10T01:04:23;96561.28;;;19.96;100.00
10348;BME280;5220;43.192;23.284;2023-06-10T01:06:54;96561.25;;;19.81;100.00
10348;BME280;5220;43.192;23.284;2023-06-10T01:09:29;96550.31;;;19.84;100.00
10348;BME280;5220;43.192;23.284;2023-06-10T01:12:05;96554.72;;;19.92;100.00
10348;BME280;5220;43.192;23.284;2023-06-10T01:14:36;96550.91;;;19.95;100.00
10348;BME280;5220;43.192;23.284;2023-06-10T01:17:04;96543.22;;;19.85;100.00
10348;BME280;5220;43.192;23.284;2023-06-10T01:19:32;96544.97;;;19.93;100.00
10348;BME280;5220;43.192;23.284;2023-06-10T01:22:00;96537.22;;;19.91;100.00
10348;BME280;5220;43.192;23.284;2023-06-10T01:24:27;96532.13;;;19.90;100.00
10348;BME280;5220;43.192;23.284;2023-06-10T01:27:00;96529.94;;;19.78;100.00
10348;BME280;5220;43.192;23.284;2023-06-10T01:29:31;96514.56;;;19.82;100.00
10348;BME280;5220;43.192;23.284;2023-06-10T01:32:05;96515.66;;;19.88;100.00
10348;BME280;5220;43.192;23.284;2023-06-10T01:34:35;96514.19;;;19.85;100.00
10348;BME280;5220;43.192;23.284;2023-06-10T01:37:04;96509.91;;;19.84;100.00
10348;BME280;5220;43.192;23.284;2023-06-10T01:39:32;96495.34;;;19.88;100.00
10348;BME280;5220;43.192;23.284;2023-06-10T01:41:59;96493.63;;;19.95;100.00
10348;BME280;5220;43.192;23.284;2023-06-10T01:44:27;96495.47;;;19.95;100.00
10348;BME280;5220;43.192;23.284;2023-06-10T01:46:54;96496.66;;;19.92;100.00
10348;BME280;5220;43.192;23.284;2023-06-10T01:49:21;96501.94;;;19.92;100.00
10348;BME280;5220;43.192;23.284;2023-06-10T01:51:49;96500.75;;;19.95;100.00
10348;BME280;5220;43.192;23.284;2023-06-10T01:54:17;96500.91;;;19.93;100.00
10348;BME280;5220;43.192;23.284;2023-06-10T01:56:44;96476.59;;;19.83;100.00
10348;BME280;5220;43.192;23.284;2023-06-10T01:59:10;96495.25;;;19.96;100.00
10348;BME280;5220;43.192;23.284;2023-06-10T02:01:37;96500.91;;;19.93;100.00
10348;BME280;5220;43.192;23.284;2023-06-10T02:04:04;96512.63;;;19.76;100.00
10348;BME280;5220;43.192;23.284;2023-06-10T02:06:30;96513.72;;;19.81;100.00
10348;BME280;5220;43.192;23.284;2023-06-10T02:08:57;96507.63;;;19.81;100.00
10348;BME280;5220;43.192;23.284;2023-06-10T02:11:25;96513.22;;;19.86;100.00
10348;BME280;5220;43.192;23.284;2023-06-10T02:13:52;96526.41;;;19.86;100.00
10348;BME280;5220;43.192;23.284;2023-06-10T02:16:19;96528.03;;;19.87;100.00
10348;BME280;5220;43.192;23.284;2023-06-10T02:18:46;96534.31;;;19.86;100.00
10348;BME280;5220;43.192;23.284;2023-06-10T02:21:14;96524.66;;;19.78;100.00
10348;BME280;5220;43.192;23.284;2023-06-10T02:23:40;96531.38;;;19.81;100.00
10348;BME280;5220;43.192;23.284;2023-06-10T02:26:07;96529.56;;;19.81;100.00
10348;BME280;5220;43.192;23.284;2023-06-10T02:28:35;96527.28;;;19.78;100.00
10348;BME280;5220;43.192;23.284;2023-06-10T02:31:02;96531.38;;;19.81;100.00
10348;BME280;5220;43.192;23.284;2023-06-10T02:33:28;96523.34;;;19.74;100.00
10348;BME280;5220;43.192;23.284;2023-06-10T02:35:55;96531.94;;;19.76;100.00
10348;BME280;5220;43.192;23.284;2023-06-10T02:38:22;96529.91;;;19.64;100.00
10348;BME280;5220;43.192;23.284;2023-06-10T02:40:49;96532.19;;;19.67;100.00
10348;BME280;5220;43.192;23.284;2023-06-10T02:43:15;96522.63;;;19.66;100.00
10348;BME280;5220;43.192;23.284;2023-06-10T02:45:44;96518.41;;;19.57;100.00
10348;BME280;5220;43.192;23.284;2023-06-10T02:48:10;96509.63;;;19.42;100.00
10348;BME280;5220;43.192;23.284;2023-06-10T02:50:37;96521.13;;;19.49;100.00
10348;BME280;5220;43.192;23.284;2023-06-10T02:53:05;96515.84;;;19.49;100.00
10348;BME280;5220;43.192;23.284;2023-06-10T02:55:32;96529.69;;;19.51;100.00
10348;BME280;5220;43.192;23.284;2023-06-10T02:58:00;96526.69;;;19.54;100.00
10348;BME280;5220;43.192;23.284;2023-06-10T03:00:28;96532.59;;;19.56;100.00
10348;BME280;5220;43.192;23.284;2023-06-10T03:02:56;96518.41;;;19.57;100.00
10348;BME280;5220;43.192;23.284;2023-06-10T03:05:23;96523.06;;;19.55;100.00
10348;BME280;5220;43.192;23.284;2023-06-10T03:07:50;96526.50;;;19.55;100.00
10348;BME280;5220;43.192;23.284;2023-06-10T03:10:17;96526.84;;;19.52;100.00
10348;BME280;5220;43.192;23.284;2023-06-10T03:12:43;96535.13;;;19.49;100.00
10348;BME280;5220;43.192;23.284;2023-06-10T03:15:10;96533.31;;;19.50;100.00
10348;BME280;5220;43.192;23.284;2023-06-10T03:17:37;96532.69;;;19.48;100.00
10348;BME280;5220;43.192;23.284;2023-06-10T03:20:06;96523.00;;;19.40;100.00
10348;BME280;5220;43.192;23.284;2023-06-10T03:22:35;96534.97;;;19.51;100.00
10348;BME280;5220;43.192;23.284;2023-06-10T03:25:04;96527.13;;;19.43;100.00
10348;BME280;5220;43.192;23.284;2023-06-10T03:27:31;96549.38;;;19.40;100.00
10348;BME280;5220;43.192;23.284;2023-06-10T03:29:58;96550.59;;;19.29;100.00
10348;BME280;5220;43.192;23.284;2023-06-10T03:32:24;96545.59;;;19.34;100.00
10348;BME280;5220;43.192;23.284;2023-06-10T03:34:51;96561.06;;;19.38;100.00
10348;BME280;5220;43.192;23.284;2023-06-10T03:37:24;96553.16;;;19.38;100.00
10348;BME280;5220;43.192;23.284;2023-06-10T03:39:51;96555.47;;;19.41;100.00
10348;BME280;5220;43.192;23.284;2023-06-10T03:42:17;96562.06;;;19.45;100.00
10348;BME280;5220;43.192;23.284;2023-06-10T03:44:44;96552.94;;;19.47;100.00
10348;BME280;5220;43.192;23.284;2023-06-10T03:47:11;96551.63;;;19.51;100.00
10348;BME280;5220;43.192;23.284;2023-06-10T03:49:39;96545.31;;;19.52;100.00
10348;BME280;5220;43.192;23.284;2023-06-10T03:52:06;96552.44;;;19.52;100.00
10348;BME280;5220;43.192;23.284;2023-06-10T03:54:34;96551.63;;;19.51;100.00
10348;BME280;5220;43.192;23.284;2023-06-10T03:57:01;96548.25;;;19.57;100.00
10348;BME280;5220;43.192;23.284;2023-06-10T03:59:28;96557.28;;;19.40;100.00
10348;BME280;5220;43.192;23.284;2023-06-10T04:01:55;96562.69;;;19.47;100.00
10348;BME280;5220;43.192;23.284;2023-06-10T04:04:23;96508.78;;;18.96;100.00
10348;BME280;5220;43.192;23.284;2023-06-10T04:06:49;96558.44;;;19.46;100.00
10348;BME280;5220;43.192;23.284;2023-06-10T04:09:16;96556.19;;;19.57;100.00
10348;BME280;5220;43.192;23.284;2023-06-10T04:11:44;96555.75;;;19.68;100.00
10348;BME280;5220;43.192;23.284;2023-06-10T04:14:11;96552.50;;;19.81;100.00
10348;BME280;5220;43.192;23.284;2023-06-10T04:16:39;96550.44;;;19.91;100.00
10348;BME280;5220;43.192;23.284;2023-06-10T04:19:06;96554.13;;;20.05;100.00
10348;BME280;5220;43.192;23.284;2023-06-10T04:21:32;96548.09;;;20.11;100.00
10348;BME280;5220;43.192;23.284;2023-06-10T04:23:59;96551.75;;;20.24;100.00
10348;BME280;5220;43.192;23.284;2023-06-10T04:26:26;96545.97;;;20.29;100.00
10348;BME280;5220;43.192;23.284;2023-06-10T04:28:55;96553.78;;;20.37;100.00
10348;BME280;5220;43.192;23.284;2023-06-10T04:31:21;96547.97;;;20.42;100.00
10348;BME280;5220;43.192;23.284;2023-06-10T04:33:48;96558.78;;;20.47;100.00
10348;BME280;5220;43.192;23.284;2023-06-10T04:36:15;96548.50;;;20.52;100.00
10348;BME280;5220;43.192;23.284;2023-06-10T04:38:42;96550.41;;;20.58;100.00
10348;BME280;5220;43.192;23.284;2023-06-10T04:41:08;96540.03;;;20.56;100.00
10348;BME280;5220;43.192;23.284;2023-06-10T04:43:35;96551.59;;;20.70;100.00
10348;BME280;5220;43.192;23.284;2023-06-10T04:46:03;96552.66;;;20.75;100.00
10348;BME280;5220;43.192;23.284;2023-06-10T04:48:30;96554.38;;;20.83;100.00
10348;BME280;5220;43.192;23.284;2023-06-10T04:50:58;96562.31;;;20.98;100.00
10348;BME280;5220;43.192;23.284;2023-06-10T04:53:25;96566.47;;;21.07;100.00
10348;BME280;5220;43.192;23.284;2023-06-10T04:55:54;96569.41;;;21.12;100.00
10348;BME280;5220;43.192;23.284;2023-06-10T04:58:20;96568.19;;;21.14;100.00
10348;BME280;5220;43.192;23.284;2023-06-10T05:00:47;96565.19;;;21.17;100.00
10348;BME280;5220;43.192;23.284;2023-06-10T05:03:15;96572.94;;;21.19;100.00
10348;BME280;5220;43.192;23.284;2023-06-10T05:05:43;96570.09;;;21.20;100.00
10348;BME280;5220;43.192;23.284;2023-06-10T05:08:10;96571.56;;;21.23;100.00
10348;BME280;5220;43.192;23.284;2023-06-10T05:10:36;96562.81;;;21.22;100.00
10348;BME280;5220;43.192;23.284;2023-06-10T05:13:03;96554.28;;;21.27;100.00
10348;BME280;5220;43.192;23.284;2023-06-10T05:15:31;96565.59;;;21.57;100.00
10348;BME280;5220;43.192;23.284;2023-06-10T05:17:58;96564.91;;;22.52;100.00
10348;BME280;5220;43.192;23.284;2023-06-10T05:20:26;96578.88;;;23.69;100.00
10348;BME280;5220;43.192;23.284;2023-06-10T05:22:53;96590.75;;;24.19;100.00
10348;BME280;5220;43.192;23.284;2023-06-10T05:25:20;96585.44;;;24.19;100.00
10348;BME280;5220;43.192;23.284;2023-06-10T05:27:47;96584.41;;;24.14;100.00
10348;BME280;5220;43.192;23.284;2023-06-10T05:30:13;96572.75;;;23.82;100.00
10348;BME280;5220;43.192;23.284;2023-06-10T05:32:40;96589.25;;;23.64;100.00
10348;BME280;5220;43.192;23.284;2023-06-10T05:35:07;96590.84;;;23.45;100.00
10348;BME280;5220;43.192;23.284;2023-06-10T05:37:35;96579.53;;;23.24;100.00
10348;BME280;5220;43.192;23.284;2023-06-10T05:40:03;96587.41;;;23.04;100.00
10348;BME280;5220;43.192;23.284;2023-06-10T05:42:30;96577.28;;;22.73;100.00
10348;BME280;5220;43.192;23.284;2023-06-10T05:44:57;96584.09;;;22.55;100.00
10348;BME280;5220;43.192;23.284;2023-06-10T05:47:23;96574.22;;;22.42;100.00
10348;BME280;5220;43.192;23.284;2023-06-10T05:49:50;96578.38;;;22.17;100.00
10348;BME280;5220;43.192;23.284;2023-06-10T05:52:17;96585.09;;;21.91;100.00
10348;BME280;5220;43.192;23.284;2023-06-10T05:54:45;96575.81;;;21.60;100.00
10348;BME280;5220;43.192;23.284;2023-06-10T05:57:12;96586.31;;;21.74;100.00
10348;BME280;5220;43.192;23.284;2023-06-10T05:59:39;96582.69;;;21.75;100.00
10348;BME280;5220;43.192;23.284;2023-06-10T06:02:06;96585.94;;;21.77;100.00
10348;BME280;5220;43.192;23.284;2023-06-10T06:04:33;96583.66;;;21.74;100.00
10348;BME280;5220;43.192;23.284;2023-06-10T06:07:01;96583.13;;;21.79;100.00
10348;BME280;5220;43.192;23.284;2023-06-10T06:09:28;96585.00;;;21.85;100.00
10348;BME280;5220;43.192;23.284;2023-06-10T06:11:56;96584.78;;;21.86;100.00
10348;BME280;5220;43.192;23.284;2023-06-10T06:14:23;96581.63;;;21.91;100.00
10348;BME280;5220;43.192;23.284;2023-06-10T06:16:49;96578.00;;;21.98;100.00
10348;BME280;5220;43.192;23.284;2023-06-10T06:19:16;96582.34;;;22.06;100.00
10348;BME280;5220;43.192;23.284;2023-06-10T06:21:43;96579.31;;;22.09;100.00
10348;BME280;5220;43.192;23.284;2023-06-10T06:24:10;96574.88;;;22.16;100.00
10348;BME280;5220;43.192;23.284;2023-06-10T06:26:36;96567.22;;;22.28;100.00
10348;BME280;5220;43.192;23.284;2023-06-10T06:29:04;96582.16;;;22.35;100.00
10348;BME280;5220;43.192;23.284;2023-06-10T06:31:31;96579.50;;;22.35;100.00
10348;BME280;5220;43.192;23.284;2023-06-10T06:33:58;96577.66;;;22.08;100.00
10348;BME280;5220;43.192;23.284;2023-06-10T06:36:25;96574.16;;;22.29;100.00
10348;BME280;5220;43.192;23.284;2023-06-10T06:38:52;96573.00;;;22.10;100.00
10348;BME280;5220;43.192;23.284;2023-06-10T06:41:19;96575.66;;;22.38;100.00
10348;BME280;5220;43.192;23.284;2023-06-10T06:43:47;96575.88;;;22.43;100.00
10348;BME280;5220;43.192;23.284;2023-06-10T06:46:17;96570.63;;;22.22;100.00
10348;BME280;5220;43.192;23.284;2023-06-10T06:48:44;96564.34;;;22.29;100.00
10348;BME280;5220;43.192;23.284;2023-06-10T06:51:10;96560.41;;;22.46;100.00
10348;BME280;5220;43.192;23.284;2023-06-10T06:53:37;96563.28;;;22.51;100.00
10348;BME280;5220;43.192;23.284;2023-06-10T06:56:10;96552.53;;;22.60;100.00
10348;BME280;5220;43.192;23.284;2023-06-10T06:58:37;96569.59;;;22.85;100.00
10348;BME280;5220;43.192;23.284;2023-06-10T07:01:04;96562.22;;;22.80;100.00
10348;BME280;5220;43.192;23.284;2023-06-10T07:03:32;96565.56;;;22.95;100.00
10348;BME280;5220;43.192;23.284;2023-06-10T07:06:00;96557.44;;;23.03;100.00
10348;BME280;5220;43.192;23.284;2023-06-10T07:08:27;96567.34;;;22.82;100.00
10348;BME280;5220;43.192;23.284;2023-06-10T07:10:54;96563.31;;;22.92;100.00
10348;BME280;5220;43.192;23.284;2023-06-10T07:13:20;96572.13;;;23.06;100.00
10348;BME280;5220;43.192;23.284;2023-06-10T07:15:47;96564.34;;;22.91;100.00
10348;BME280;5220;43.192;23.284;2023-06-10T07:18:15;96565.44;;;23.10;100.00
10348;BME280;5220;43.192;23.284;2023-06-10T07:20:43;96555.44;;;23.19;100.00
10348;BME280;5220;43.192;23.284;2023-06-10T07:23:10;96553.19;;;22.68;100.00
10348;BME280;5220;43.192;23.284;2023-06-10T07:25:38;96561.44;;;22.86;100.00
10348;BME280;5220;43.192;23.284;2023-06-10T07:28:04;96566.06;;;22.71;100.00
10348;BME280;5220;43.192;23.284;2023-06-10T07:30:31;96556.56;;;22.56;100.00
10348;BME280;5220;43.192;23.284;2023-06-10T07:32:58;96569.13;;;22.68;100.00
10348;BME280;5220;43.192;23.284;2023-06-10T07:35:25;96564.13;;;22.59;100.00
10348;BME280;5220;43.192;23.284;2023-06-10T07:37:53;96561.91;;;22.62;100.00
10348;BME280;5220;43.192;23.284;2023-06-10T07:40:19;96565.94;;;22.92;100.00
10348;BME280;5220;43.192;23.284;2023-06-10T07:42:46;96566.00;;;23.06;100.00
10348;BME280;5220;43.192;23.284;2023-06-10T07:45:15;96568.91;;;23.17;100.00
10348;BME280;5220;43.192;23.284;2023-06-10T07:47:42;96568.94;;;23.30;100.00
10348;BME280;5220;43.192;23.284;2023-06-10T07:50:09;96565.47;;;23.36;100.00
10348;BME280;5220;43.192;23.284;2023-06-10T07:52:36;96576.97;;;23.43;100.00
10348;BME280;5220;43.192;23.284;2023-06-10T07:55:05;96565.69;;;23.35;100.00
10348;BME280;5220;43.192;23.284;2023-06-10T07:57:32;96566.56;;;23.48;100.00
10348;BME280;5220;43.192;23.284;2023-06-10T08:00:02;96565.56;;;23.56;100.00
10348;BME280;5220;43.192;23.284;2023-06-10T08:02:29;96575.97;;;23.64;100.00
10348;BME280;5220;43.192;23.284;2023-06-10T08:04:56;96574.75;;;23.73;100.00
10348;BME280;5220;43.192;23.284;2023-06-10T08:07:23;96564.78;;;23.82;100.00
10348;BME280;5220;43.192;23.284;2023-06-10T08:09:50;96561.91;;;23.90;100.00
10348;BME280;5220;43.192;23.284;2023-06-10T08:12:19;96568.22;;;23.89;100.00
10348;BME280;5220;43.192;23.284;2023-06-10T08:14:45;96545.72;;;23.52;100.00
10348;BME280;5220;43.192;23.284;2023-06-10T08:17:15;96575.16;;;23.70;100.00
10348;BME280;5220;43.192;23.284;2023-06-10T08:19:42;96575.41;;;23.82;100.00
10348;BME280;5220;43.192;23.284;2023-06-10T08:22:08;96582.31;;;23.83;100.00
10348;BME280;5220;43.192;23.284;2023-06-10T08:24:38;96569.88;;;23.90;100.00
10348;BME280;5220;43.192;23.284;2023-06-10T08:27:06;96570.28;;;24.00;100.00
10348;BME280;5220;43.192;23.284;2023-06-10T08:29:36;96566.81;;;24.06;100.00
10348;BME280;5220;43.192;23.284;2023-06-10T08:32:04;96571.94;;;24.14;100.00
10348;BME280;5220;43.192;23.284;2023-06-10T08:34:33;96570.28;;;24.20;100.00
10348;BME280;5220;43.192;23.284;2023-06-10T08:37:02;96563.94;;;24.07;100.00
10348;BME280;5220;43.192;23.284;2023-06-10T08:39:29;96554.13;;;23.95;100.00
10348;BME280;5220;43.192;23.284;2023-06-10T08:42:10;96564.97;;;23.87;100.00
10348;BME280;5220;43.192;23.284;2023-06-10T08:44:39;96561.28;;;24.01;100.00
10348;BME280;5220;43.192;23.284;2023-06-10T08:47:13;96561.53;;;24.13;100.00
10348;BME280;5220;43.192;23.284;2023-06-10T08:49:43;96560.06;;;24.23;100.00
10348;BME280;5220;43.192;23.284;2023-06-10T08:52:14;96553.72;;;24.31;100.00
10348;BME280;5220;43.192;23.284;2023-06-10T08:54:43;96558.81;;;24.39;100.00
10348;BME280;5220;43.192;23.284;2023-06-10T08:57:12;96549.41;;;24.49;100.00
10348;BME280;5220;43.192;23.284;2023-06-10T08:59:43;96554.47;;;24.57;100.00
10348;BME280;5220;43.192;23.284;2023-06-10T09:02:10;96560.03;;;24.56;100.00
10348;BME280;5220;43.192;23.284;2023-06-10T09:04:38;96566.53;;;24.67;100.00
10348;BME280;5220;43.192;23.284;2023-06-10T09:07:06;96554.63;;;24.76;100.00
10348;BME280;5220;43.192;23.284;2023-06-10T09:09:34;96554.22;;;24.85;100.00
10348;BME280;5220;43.192;23.284;2023-06-10T09:12:02;96544.41;;;24.66;100.00
10348;BME280;5220;43.192;23.284;2023-06-10T09:14:29;96552.31;;;24.22;100.00
10348;BME280;5220;43.192;23.284;2023-06-10T09:16:57;96546.94;;;24.48;100.00
10348;BME280;5220;43.192;23.284;2023-06-10T09:19:25;96554.88;;;24.61;100.00
10348;BME280;5220;43.192;23.284;2023-06-10T09:21:52;96546.50;;;24.57;100.00
10348;BME280;5220;43.192;23.284;2023-06-10T09:24:20;96550.16;;;24.63;100.00
10348;BME280;5220;43.192;23.284;2023-06-10T09:26:48;96547.47;;;24.76;100.00
10348;BME280;5220;43.192;23.284;2023-06-10T09:29:17;96545.59;;;24.90;100.00
10348;BME280;5220;43.192;23.284;2023-06-10T09:31:44;96545.31;;;25.11;100.00
10348;BME280;5220;43.192;23.284;2023-06-10T09:34:13;96537.28;;;25.18;100.00
10348;BME280;5220;43.192;23.284;2023-06-10T09:36:41;96534.44;;;25.50;100.00
10348;BME280;5220;43.192;23.284;2023-06-10T09:39:14;96531.78;;;25.75;100.00
10348;BME280;5220;43.192;23.284;2023-06-10T09:41:42;96525.88;;;25.98;100.00
10348;BME280;5220;43.192;23.284;2023-06-10T09:44:12;96532.75;;;25.87;100.00
10348;BME280;5220;43.192;23.284;2023-06-10T09:46:41;96523.66;;;25.95;100.00
10348;BME280;5220;43.192;23.284;2023-06-10T09:49:08;96527.28;;;26.00;100.00
10348;BME280;5220;43.192;23.284;2023-06-10T09:51:36;96522.06;;;26.12;100.00
10348;BME280;5220;43.192;23.284;2023-06-10T09:54:03;96515.38;;;26.28;100.00
10348;BME280;5220;43.192;23.284;2023-06-10T09:56:34;96510.84;;;26.28;100.00
10348;BME280;5220;43.192;23.284;2023-06-10T09:59:02;96507.31;;;26.52;100.00
10348;BME280;5220;43.192;23.284;2023-06-10T10:01:30;96517.81;;;26.29;100.00
10348;BME280;5220;43.192;23.284;2023-06-10T10:03:58;96502.66;;;26.48;100.00
10348;BME280;5220;43.192;23.284;2023-06-10T10:06:25;96502.88;;;26.64;100.00
10348;BME280;5220;43.192;23.284;2023-06-10T10:08:54;96495.13;;;26.74;100.00
10348;BME280;5220;43.192;23.284;2023-06-10T10:11:22;96493.81;;;26.65;100.00
10348;BME280;5220;43.192;23.284;2023-06-10T10:13:50;96491.09;;;26.54;100.00
10348;BME280;5220;43.192;23.284;2023-06-10T10:16:19;96485.16;;;26.52;100.00
10348;BME280;5220;43.192;23.284;2023-06-10T10:18:51;96482.50;;;26.52;100.00
10348;BME280;5220;43.192;23.284;2023-06-10T10:21:22;96478.78;;;26.16;100.00
10348;BME280;5220;43.192;23.284;2023-06-10T10:23:56;96474.47;;;25.91;100.00
10348;BME280;5220;43.192;23.284;2023-06-10T10:26:29;96471.91;;;26.02;100.00
10348;BME280;5220;43.192;23.284;2023-06-10T10:29:06;96479.63;;;26.10;100.00
10348;BME280;5220;43.192;23.284;2023-06-10T10:31:35;96470.59;;;26.11;100.00
10348;BME280;5220;43.192;23.284;2023-06-10T10:34:05;96469.06;;;25.97;100.00
10348;BME280;5220;43.192;23.284;2023-06-10T10:36:33;96469.94;;;26.16;100.00
10348;BME280;5220;43.192;23.284;2023-06-10T10:39:04;96468.94;;;26.10;100.00
10348;BME280;5220;43.192;23.284;2023-06-10T10:41:31;96467.94;;;26.11;100.00
10348;BME280;5220;43.192;23.284;2023-06-10T10:43:59;96466.66;;;26.14;100.00
10348;BME280;5220;43.192;23.284;2023-06-10T10:46:27;96461.94;;;26.16;100.00
10348;BME280;5220;43.192;23.284;2023-06-10T10:48:54;96464.63;;;26.16;100.00
10348;BME280;5220;43.192;23.284;2023-06-10T10:51:22;96462.41;;;25.88;100.00
10348;BME280;5220;43.192;23.284;2023-06-10T10:54:13;96461.50;;;26.19;100.00
10348;BME280;5220;43.192;23.284;2023-06-10T10:57:09;96465.47;;;26.10;100.00
10348;BME280;5220;43.192;23.284;2023-06-10T10:59:44;96459.44;;;26.21;100.00
10348;BME280;5220;43.192;23.284;2023-06-10T11:02:15;96461.66;;;26.24;100.00
10348;BME280;5220;43.192;23.284;2023-06-10T11:04:45;96457.53;;;26.03;91.68
10348;BME280;5220;43.192;23.284;2023-06-10T11:07:12;96451.31;;;26.09;100.00
10348;BME280;5220;43.192;23.284;2023-06-10T11:10:00;96456.72;;;26.28;97.69
10348;BME280;5220;43.192;23.284;2023-06-10T11:12:41;96438.59;;;26.11;89.99
10348;BME280;5220;43.192;23.284;2023-06-10T11:15:08;96445.81;;;26.29;92.32
10348;BME280;5220;43.192;23.284;2023-06-10T11:17:35;96449.06;;;26.31;95.25
10348;BME280;5220;43.192;23.284;2023-06-10T11:20:02;96443.66;;;26.38;95.10
10348;BME280;5220;43.192;23.284;2023-06-10T11:22:29;96439.66;;;26.29;86.70
10348;BME280;5220;43.192;23.284;2023-06-10T11:24:56;96433.22;;;26.36;90.96
10348;BME280;5220;43.192;23.284;2023-06-10T11:27:26;96427.38;;;26.46;96.39
10348;BME280;5220;43.192;23.284;2023-06-10T11:30:18;96423.94;;;26.57;93.47
10348;BME280;5220;43.192;23.284;2023-06-10T11:32:50;96420.69;;;26.37;94.21
10348;BME280;5220;43.192;23.284;2023-06-10T11:35:18;96423.44;;;26.48;94.78
10348;BME280;5220;43.192;23.284;2023-06-10T11:37:46;96426.75;;;26.44;89.71
10348;BME280;5220;43.192;23.284;2023-06-10T11:40:13;96414.91;;;26.58;82.97
10348;BME280;5220;43.192;23.284;2023-06-10T11:42:42;96414.06;;;26.57;94.09
10348;BME280;5220;43.192;23.284;2023-06-10T11:45:09;96420.84;;;26.71;94.89
10348;BME280;5220;43.192;23.284;2023-06-10T11:47:36;96412.50;;;26.86;96.16
10348;BME280;5220;43.192;23.284;2023-06-10T11:50:03;96419.72;;;26.79;100.00
10348;BME280;5220;43.192;23.284;2023-06-10T11:52:30;96409.75;;;26.56;96.64
10348;BME280;5220;43.192;23.284;2023-06-10T11:54:59;96414.94;;;26.69;95.49
10348;BME280;5220;43.192;23.284;2023-06-10T11:57:26;96415.63;;;26.65;93.87
10348;BME280;5220;43.192;23.284;2023-06-10T11:59:54;96414.34;;;26.67;93.37
10348;BME280;5220;43.192;23.284;2023-06-10T12:02:21;96417.16;;;26.72;90.91
10348;BME280;5220;43.192;23.284;2023-06-10T12:04:48;96414.41;;;26.79;95.18
10348;BME280;5220;43.192;23.284;2023-06-10T12:07:18;96414.41;;;26.79;90.74
10348;BME280;5220;43.192;23.284;2023-06-10T12:09:46;96408.88;;;26.62;92.22
10348;BME280;5220;43.192;23.284;2023-06-10T12:12:13;96403.44;;;26.69;86.80
10348;BME280;5220;43.192;23.284;2023-06-10T12:14:55;96398.22;;;26.92;84.84
10348;BME280;5220;43.192;23.284;2023-06-10T12:17:23;96397.13;;;26.82;94.37
10348;BME280;5220;43.192;23.284;2023-06-10T12:19:51;96400.41;;;26.84;92.26
10348;BME280;5220;43.192;23.284;2023-06-10T12:22:18;96397.16;;;26.93;90.29
10348;BME280;5220;43.192;23.284;2023-06-10T12:24:56;96395.19;;;26.89;86.97
10348;BME280;5220;43.192;23.284;2023-06-10T12:27:26;96395.31;;;26.94;85.88
10348;BME280;5220;43.192;23.284;2023-06-10T12:29:57;96398.09;;;26.87;84.74
10348;BME280;5220;43.192;23.284;2023-06-10T12:32:45;96397.06;;;27.00;84.29
10348;BME280;5220;43.192;23.284;2023-06-10T12:35:17;96388.75;;;26.96;81.34
10348;BME280;5220;43.192;23.284;2023-06-10T12:37:55;96385.47;;;27.06;84.57
10348;BME280;5220;43.192;23.284;2023-06-10T12:40:30;96386.75;;;27.03;71.94
10348;BME280;5220;43.192;23.284;2023-06-10T12:42:57;96392.47;;;27.07;80.16
10348;BME280;5220;43.192;23.284;2023-06-10T12:45:37;96384.41;;;26.65;87.69
10348;BME280;5220;43.192;23.284;2023-06-10T12:48:09;96378.97;;;26.42;83.13
10348;BME280;5220;43.192;23.284;2023-06-10T12:50:36;96385.19;;;26.54;87.93
10348;BME280;5220;43.192;23.284;2023-06-10T12:53:04;96381.31;;;26.50;81.30
10348;BME280;5220;43.192;23.284;2023-06-10T12:55:32;96387.09;;;26.47;83.37